createdAt,value
2022-10-07T00:04:22.414Z,80.51
2022-10-07T00:14:29.539Z,80.70
2022-10-07T00:24:36.712Z,81.01
2022-10-07T00:34:44.131Z,80.97
2022-10-07T00:44:51.116Z,80.70
2022-10-07T00:55:02.472Z,80.95
2022-10-07T01:05:14.390Z,81.07
2022-10-07T01:15:20.484Z,81.31
2022-10-07T01:25:33.714Z,81.35
2022-10-07T01:35:45.210Z,81.52
2022-10-07T01:45:56.104Z,81.26
2022-10-07T01:56:13.110Z,81.54
2022-10-07T02:06:23.888Z,81.70
2022-10-07T02:16:34.995Z,81.55
2022-10-07T02:26:44.853Z,81.78
2022-10-07T02:36:54.929Z,82.09
2022-10-07T02:46:59.661Z,81.47
2022-10-07T02:57:09.477Z,81.47
2022-10-07T03:07:15.801Z,81.90
2022-10-07T03:17:23.208Z,82.00
2022-10-07T03:27:30.535Z,82.08
2022-10-07T03:37:36.799Z,82.38
2022-10-07T03:47:44.158Z,82.08
2022-10-07T03:57:58.424Z,82.20
2022-10-07T04:08:07.233Z,82.27
2022-10-07T04:18:14.215Z,82.48
2022-10-07T04:28:23.597Z,82.44
2022-10-07T04:38:32.792Z,82.53
2022-10-07T04:48:39.983Z,82.64
2022-10-07T04:58:47.143Z,82.62
2022-10-07T05:08:54.708Z,82.75
2022-10-07T05:19:00.656Z,82.94
2022-10-07T05:29:08.069Z,82.99
2022-10-07T05:39:14.676Z,83.09
2022-10-07T05:49:21.794Z,83.14
2022-10-07T05:59:28.992Z,83.25
2022-10-07T06:09:53.597Z,84.28
2022-10-07T06:20:03.048Z,84.20
2022-10-07T06:30:13.240Z,83.32
2022-10-07T06:40:20.735Z,82.48
2022-10-07T06:50:27.967Z,81.96
2022-10-07T07:00:34.917Z,82.49
2022-10-07T07:10:44.357Z,82.97
2022-10-07T07:20:52.016Z,82.79
2022-10-07T07:30:59.231Z,82.69
2022-10-07T07:41:07.451Z,82.59
2022-10-07T07:51:13.567Z,82.46
2022-10-07T08:01:21.185Z,81.27
2022-10-07T08:11:29.259Z,79.28
2022-10-07T08:21:36.448Z,77.85
2022-10-07T08:31:44.370Z,76.18
2022-10-07T08:41:57.143Z,74.93
2022-10-07T08:52:07.118Z,74.16
2022-10-07T09:02:17.401Z,73.26
2022-10-07T09:12:25.891Z,71.72
2022-10-07T09:22:37.641Z,71.64
2022-10-07T09:32:45.728Z,71.02
2022-10-07T09:42:54.509Z,70.66
2022-10-07T09:53:02.651Z,70.25
2022-10-07T10:03:10.125Z,69.05
2022-10-07T10:13:29.064Z,68.92
2022-10-07T10:23:38.690Z,68.40
2022-10-07T10:33:43.628Z,68.12
2022-10-07T10:44:01.181Z,67.91
2022-10-07T10:54:10.554Z,67.03
2022-10-07T11:04:26.114Z,66.87
2022-10-07T11:14:37.987Z,66.18
2022-10-07T11:24:49.789Z,65.63
2022-10-07T11:34:58.096Z,65.26
2022-10-07T11:45:06.360Z,64.98
2022-10-07T11:55:10.870Z,65.15
2022-10-07T12:05:51.138Z,64.15
2022-10-07T12:16:19.125Z,63.36
2022-10-07T12:26:51.660Z,63.01
2022-10-07T12:37:36.201Z,63.43
2022-10-07T12:47:45.281Z,63.17
2022-10-07T12:57:55.082Z,63.09
2022-10-07T13:08:35.539Z,62.52
2022-10-07T13:18:44.717Z,62.08
2022-10-07T13:28:55.149Z,61.53
2022-10-07T13:39:11.294Z,61.68
2022-10-07T13:49:23.101Z,61.79
2022-10-07T13:59:36.775Z,62.06
2022-10-07T14:09:50.447Z,62.22
2022-10-07T14:20:00.457Z,62.71
2022-10-07T14:30:32.082Z,62.79
2022-10-07T14:40:39.801Z,63.38
2022-10-07T14:50:46.968Z,63.30
2022-10-07T15:00:54.049Z,63.55
2022-10-07T15:11:02.989Z,63.83
2022-10-07T15:21:09.103Z,64.04
2022-10-07T15:31:17.856Z,64.42
2022-10-07T15:41:33.020Z,64.76
2022-10-07T15:51:40.811Z,65.33
2022-10-07T16:01:52.033Z,66.08
2022-10-07T16:11:59.388Z,66.68
2022-10-07T16:22:06.598Z,67.46
2022-10-07T16:32:14.443Z,68.14
2022-10-07T16:42:20.776Z,68.86
2022-10-07T16:52:26.843Z,69.58
2022-10-07T17:02:34.162Z,70.19
2022-10-07T17:12:40.346Z,70.88
2022-10-07T17:22:47.832Z,71.23
2022-10-07T17:32:55.025Z,71.71
2022-10-07T17:43:01.712Z,72.09
2022-10-07T17:53:09.005Z,72.51
2022-10-07T18:03:16.383Z,72.85
2022-10-07T18:13:41.477Z,73.32
2022-10-07T18:23:48.684Z,73.95
2022-10-07T18:33:55.997Z,74.26
2022-10-07T18:44:03.139Z,74.64
2022-10-07T18:54:11.663Z,74.69
2022-10-07T19:04:18.965Z,74.95
2022-10-07T19:14:31.169Z,75.27
2022-10-07T19:24:56.447Z,75.25
2022-10-07T19:35:03.711Z,75.15
2022-10-07T19:45:14.429Z,75.33
2022-10-07T19:55:22.081Z,75.58
2022-10-07T20:05:29.921Z,75.90
2022-10-07T20:15:37.342Z,75.99
2022-10-07T20:25:45.871Z,76.23
2022-10-07T20:35:52.567Z,76.44
2022-10-07T20:45:59.898Z,76.59
2022-10-07T20:56:05.937Z,76.99
2022-10-07T21:06:13.161Z,77.37
2022-10-07T21:16:19.722Z,77.58
2022-10-07T21:26:26.653Z,77.75
2022-10-07T21:36:34.260Z,77.92
2022-10-07T21:46:42.611Z,77.99
2022-10-07T21:56:50.805Z,78.07
2022-10-07T22:07:16.100Z,78.43
2022-10-07T22:17:23.526Z,78.84
2022-10-07T22:27:30.588Z,78.84
2022-10-07T22:37:38.447Z,79.08
2022-10-07T22:47:45.509Z,79.57
2022-10-07T22:57:52.956Z,79.75
2022-10-07T23:08:00.042Z,79.83
2022-10-07T23:18:06.226Z,80.14
2022-10-07T23:28:13.268Z,80.21
2022-10-07T23:38:20.427Z,80.37
2022-10-07T23:48:27.898Z,80.62
2022-10-07T23:58:36.007Z,80.80
